KCDH/CDH METAR and TAF weather

Enter ICAO airport designator
Station Type Date Time Source
KCDH METAR 2021/09/27 07:35 UTC NOAA

KCDH 270735Z AUTO 00000KT 9SM CLR 15/15 A3005 RMK AO2


Station Type Date Time Source
KCDH Decoded METAR 2021/09/27 07:35 UTC NOAA

Camden / Harrell Field, AR, United States (KCDH) 33-37N 092-46W
Sep 27, 2021 - 03:35 AM EDT / 2021.09.27 0735 UTC
Wind: Calm:0
Visibility: 9 mile(s):0
Sky conditions: clear
Temperature: 59 F (15 C)
Dew Point: 59 F (15 C)
Relative Humidity: 100%
Pressure (altimeter): 30.05 in. Hg (1017 hPa)
ob: KCDH 270735Z AUTO 00000KT 9SM CLR 15/15 A3005 RMK AO2
cycle: 7

Station Type Date Time Source
KCDH TAF UTC NOAA

Error!

Example: see airport list